Time;durP1;ratioP1;P1;durP2;ratioP2;P2;SDS_P1;SDS_P2;PMS_P1;PMS_P2;Temp;Humidity;BMP_temperature;BMP_pressure;BME280_temperature;BME280_humidity;BME280_pressure;Samples;Min_cycle;Max_cycle;Signal;HPM_P1;HPM_P2
2024/04/01 00:02:19;;;;;;;8.83;5.37;;;;;;;;;;5082037;28;20447;-73
2024/04/01 00:04:45;;;;;;;11.13;3.70;;;;;;;;;;5084875;28;20489;-73
2024/04/01 00:07:12;;;;;;;5.03;3.57;;;;;;;;;;5091873;28;20537;-73
2024/04/01 00:09:38;;;;;;;9.43;2.90;;;;;;;;;;5090191;28;20445;-73
2024/04/01 00:12:06;;;;;;;6.20;3.13;;;;;;;;;;5092660;28;20499;-73
2024/04/01 00:14:32;;;;;;;4.53;3.23;;;;;;;;;;5081615;28;20473;-73
2024/04/01 00:16:59;;;;;;;6.03;3.43;;;;;;;;;;5093032;28;20446;-73
2024/04/01 00:19:27;;;;;;;8.57;3.63;;;;;;;;;;5084761;28;20420;-73
2024/04/01 00:21:54;;;;;;;6.13;3.43;;;;;;;;;;5087222;28;20447;-73
2024/04/01 00:24:20;;;;;;;7.03;3.77;;;;;;;;;;5088342;28;20482;-73
2024/04/01 00:26:47;;;;;;;7.70;2.97;;;;;;;;;;5088423;28;20522;-73
2024/04/01 00:29:13;;;;;;;5.43;4.73;;;;;;;;;;5086637;28;20454;-73
2024/04/01 00:31:41;;;;;;;5.07;3.07;;;;;;;;;;5083442;28;20449;-73
2024/04/01 00:34:07;;;;;;;4.30;2.50;;;;;;;;;;5089663;28;20468;-73
2024/04/01 00:36:35;;;;;;;9.03;6.13;;;;;;;;;;5097857;28;20476;-73
2024/04/01 00:39:02;;;;;;;11.90;3.30;;;;;;;;;;5082717;28;20454;-73
2024/04/01 00:41:29;;;;;;;14.90;4.20;;;;;;;;;;5089759;28;20442;-73
2024/04/01 00:43:56;;;;;;;7.03;3.83;;;;;;;;;;5088582;28;20532;-73
2024/04/01 00:46:23;;;;;;;6.90;3.17;;;;;;;;;;5090485;28;20854;-73
2024/04/01 00:48:50;;;;;;;6.13;3.30;;;;;;;;;;5089357;28;20832;-73
2024/04/01 00:51:18;;;;;;;10.43;3.67;;;;;;;;;;5089540;28;20438;-73
2024/04/01 00:53:46;;;;;;;8.30;3.40;;;;;;;;;;5086511;28;20530;-73
2024/04/01 00:56:13;;;;;;;9.60;3.27;;;;;;;;;;5079443;28;20491;-73
2024/04/01 00:58:39;;;;;;;8.30;3.80;;;;;;;;;;5090130;28;20545;-73
2024/04/01 01:01:07;;;;;;;7.63;3.80;;;;;;;;;;5088196;28;20450;-73
2024/04/01 01:03:33;;;;;;;14.00;4.20;;;;;;;;;;5080420;28;20452;-73
2024/04/01 01:06:01;;;;;;;6.43;3.87;;;;;;;;;;5089606;28;21010;-73
2024/04/01 01:08:27;;;;;;;7.33;3.40;;;;;;;;;;5089963;28;20575;-73
2024/04/01 01:10:55;;;;;;;14.87;5.00;;;;;;;;;;5093096;28;20473;-73
2024/04/01 01:13:22;;;;;;;7.53;3.03;;;;;;;;;;5079993;28;20470;-73
2024/04/01 01:15:50;;;;;;;9.03;4.27;;;;;;;;;;5084507;28;20497;-73
2024/04/01 01:18:16;;;;;;;14.07;3.50;;;;;;;;;;5086686;28;20450;-73
2024/04/01 01:20:43;;;;;;;3.37;2.93;;;;;;;;;;5083174;28;20446;-73
2024/04/01 01:23:11;;;;;;;5.50;3.37;;;;;;;;;;5087068;28;20996;-73
2024/04/01 01:25:38;;;;;;;9.10;3.27;;;;;;;;;;5085840;28;20619;-73
2024/04/01 01:28:05;;;;;;;6.30;3.00;;;;;;;;;;5089388;28;20885;-73
2024/04/01 01:30:35;;;;;;;12.93;5.90;;;;;;;;;;5089420;28;20511;-73
2024/04/01 01:33:02;;;;;;;8.70;4.27;;;;;;;;;;5080022;28;20461;-73
2024/04/01 01:35:30;;;;;;;7.03;5.83;;;;;;;;;;5089122;28;20462;-73
2024/04/01 01:37:56;;;;;;;8.43;3.83;;;;;;;;;;5089394;28;20451;-73
2024/04/01 01:40:25;;;;;;;8.53;4.80;;;;;;;;;;5089050;28;20978;-73
2024/04/01 01:42:51;;;;;;;4.13;3.40;;;;;;;;;;5088338;28;20443;-73
2024/04/01 01:45:18;;;;;;;9.60;3.50;;;;;;;;;;5087546;28;20478;-73
2024/04/01 01:47:44;;;;;;;8.93;3.53;;;;;;;;;;5088903;28;20530;-73
2024/04/01 01:50:11;;;;;;;8.10;3.70;;;;;;;;;;5081272;28;20454;-73
2024/04/01 01:52:37;;;;;;;10.10;5.27;;;;;;;;;;5089549;28;20442;-73
2024/04/01 01:55:05;;;;;;;7.37;4.23;;;;;;;;;;5084495;28;20462;-73
2024/04/01 01:57:33;;;;;;;11.83;3.90;;;;;;;;;;5084235;28;20500;-73
2024/04/01 02:00:01;;;;;;;7.63;3.93;;;;;;;;;;5087099;28;20952;-73
2024/04/01 02:02:27;;;;;;;8.83;3.93;;;;;;;;;;5089836;28;20474;-73
2024/04/01 02:04:54;;;;;;;7.13;3.90;;;;;;;;;;5083621;28;20488;-73
2024/04/01 02:07:20;;;;;;;7.67;3.57;;;;;;;;;;5089731;28;20521;-73
2024/04/01 02:09:47;;;;;;;10.53;4.67;;;;;;;;;;5084422;28;20475;-73
2024/04/01 02:12:13;;;;;;;6.63;4.30;;;;;;;;;;5091839;28;20446;-73
2024/04/01 02:14:42;;;;;;;6.70;4.57;;;;;;;;;;5088048;28;20470;-73
2024/04/01 02:17:09;;;;;;;6.63;5.30;;;;;;;;;;5093412;28;20453;-73
2024/04/01 02:19:36;;;;;;;6.97;4.50;;;;;;;;;;5092652;28;20454;-73
2024/04/01 02:22:03;;;;;;;7.40;4.60;;;;;;;;;;5084476;28;20458;-73
2024/04/01 02:24:30;;;;;;;10.73;4.67;;;;;;;;;;5089887;28;20487;-73
2024/04/01 02:26:56;;;;;;;6.83;4.23;;;;;;;;;;5092355;28;20446;-73
2024/04/01 02:29:24;;;;;;;10.63;6.17;;;;;;;;;;5091696;28;20932;-73
2024/04/01 02:31:51;;;;;;;11.13;4.67;;;;;;;;;;5092800;28;20434;-73
2024/04/01 02:34:18;;;;;;;8.30;4.80;;;;;;;;;;5088321;28;20451;-73
2024/04/01 02:36:44;;;;;;;16.70;6.30;;;;;;;;;;5092796;28;20967;-73
2024/04/01 02:39:16;;;;;;;7.67;4.63;;;;;;;;;;5088593;28;21003;-73
2024/04/01 02:41:42;;;;;;;9.13;4.27;;;;;;;;;;5092903;28;20446;-73
2024/04/01 02:44:10;;;;;;;7.80;5.13;;;;;;;;;;5089308;28;20881;-73
2024/04/01 02:46:36;;;;;;;9.53;5.00;;;;;;;;;;5089404;28;20452;-73
2024/04/01 02:49:05;;;;;;;13.10;5.43;;;;;;;;;;5089623;28;21001;-73
2024/04/01 02:51:31;;;;;;;5.07;3.67;;;;;;;;;;5088761;28;20447;-73
2024/04/01 02:53:58;;;;;;;10.80;3.90;;;;;;;;;;5089704;28;20509;-73
2024/04/01 02:56:24;;;;;;;16.57;4.10;;;;;;;;;;5088856;28;20469;-73
2024/04/01 02:58:52;;;;;;;10.57;3.80;;;;;;;;;;5089886;28;20443;-73
2024/04/01 03:01:19;;;;;;;9.00;4.47;;;;;;;;;;5088682;28;20448;-73
2024/04/01 03:03:46;;;;;;;8.23;3.90;;;;;;;;;;5090377;28;20797;-73
2024/04/01 03:06:14;;;;;;;8.00;5.60;;;;;;;;;;5087904;28;20486;-73
2024/04/01 03:08:41;;;;;;;16.20;4.40;;;;;;;;;;5091024;28;20504;-73
2024/04/01 03:11:09;;;;;;;10.30;5.97;;;;;;;;;;5089298;28;21209;-74
2024/04/01 03:13:36;;;;;;;13.53;4.73;;;;;;;;;;5091307;28;20965;-73
2024/04/01 03:16:05;;;;;;;13.90;4.43;;;;;;;;;;5087497;28;20832;-73
2024/04/01 03:18:32;;;;;;;11.20;5.80;;;;;;;;;;5092007;28;20478;-73
2024/04/01 03:20:59;;;;;;;9.50;4.63;;;;;;;;;;5085967;28;20451;-73
2024/04/01 03:23:27;;;;;;;7.33;4.13;;;;;;;;;;5092027;28;20465;-73
2024/04/01 03:25:53;;;;;;;15.23;5.63;;;;;;;;;;5086868;28;21057;-73
2024/04/01 03:28:21;;;;;;;11.00;5.03;;;;;;;;;;5086356;28;20435;-73
2024/04/01 03:30:47;;;;;;;13.13;6.47;;;;;;;;;;5086790;28;20902;-73
2024/04/01 03:33:15;;;;;;;9.23;4.67;;;;;;;;;;5092414;28;20441;-73
2024/04/01 03:35:42;;;;;;;11.63;4.50;;;;;;;;;;5087395;28;20841;-73
2024/04/01 03:38:09;;;;;;;13.70;5.30;;;;;;;;;;5092200;28;20439;-73
2024/04/01 03:40:40;;;;;;;12.90;5.20;;;;;;;;;;5086011;28;20449;-73
2024/04/01 03:43:07;;;;;;;11.07;4.93;;;;;;;;;;5090767;28;20446;-73
2024/04/01 03:45:34;;;;;;;8.63;4.17;;;;;;;;;;5092133;28;20491;-73
2024/04/01 03:48:00;;;;;;;13.97;5.10;;;;;;;;;;5092454;28;20442;-73
2024/04/01 03:50:27;;;;;;;11.60;6.27;;;;;;;;;;5092046;28;20461;-73
2024/04/01 03:52:54;;;;;;;7.97;4.17;;;;;;;;;;5090818;28;20443;-73
2024/04/01 03:55:21;;;;;;;8.80;4.37;;;;;;;;;;5091670;28;20591;-73
2024/04/01 03:57:48;;;;;;;6.67;3.30;;;;;;;;;;5091930;28;20509;-73
2024/04/01 04:00:16;;;;;;;7.20;4.30;;;;;;;;;;5091947;28;20462;-73
2024/04/01 04:02:42;;;;;;;10.40;5.23;;;;;;;;;;5091543;28;20452;-73
2024/04/01 04:05:10;;;;;;;14.40;4.77;;;;;;;;;;5091597;28;20487;-73
2024/04/01 04:07:36;;;;;;;10.93;4.30;;;;;;;;;;5091668;28;20455;-73
2024/04/01 04:10:04;;;;;;;8.80;4.47;;;;;;;;;;5091643;28;20459;-73
2024/04/01 04:12:31;;;;;;;8.33;4.33;;;;;;;;;;5091651;28;20450;-73
2024/04/01 04:15:00;;;;;;;12.00;4.70;;;;;;;;;;5091809;28;20546;-73
2024/04/01 04:17:26;;;;;;;10.20;4.00;;;;;;;;;;5091714;28;20804;-73
2024/04/01 04:19:53;;;;;;;12.57;5.57;;;;;;;;;;5091607;28;20458;-73
2024/04/01 04:22:19;;;;;;;9.13;4.70;;;;;;;;;;5091228;28;20529;-73
2024/04/01 04:24:46;;;;;;;8.03;4.30;;;;;;;;;;5091279;28;20547;-73
2024/04/01 04:27:13;;;;;;;10.47;5.03;;;;;;;;;;5086778;28;20450;-73
2024/04/01 04:29:40;;;;;;;10.73;4.07;;;;;;;;;;5091296;28;20929;-73
2024/04/01 04:32:11;;;;;;;9.77;4.60;;;;;;;;;;5086542;28;20806;-73
2024/04/01 04:34:38;;;;;;;10.23;5.20;;;;;;;;;;5090521;28;20491;-73
2024/04/01 04:37:05;;;;;;;7.67;4.57;;;;;;;;;;5082962;28;20534;-73
2024/04/01 04:39:33;;;;;;;11.50;6.00;;;;;;;;;;5091096;28;20452;-73
2024/04/01 04:41:59;;;;;;;5.87;3.90;;;;;;;;;;5090836;28;20449;-73
2024/04/01 04:44:26;;;;;;;9.07;3.93;;;;;;;;;;5091075;28;20452;-72
2024/04/01 04:46:52;;;;;;;9.60;4.57;;;;;;;;;;5090967;28;20487;-73
2024/04/01 04:49:21;;;;;;;8.30;5.17;;;;;;;;;;5090960;28;20451;-73
2024/04/01 04:51:47;;;;;;;15.40;5.10;;;;;;;;;;5090724;28;20535;-73
2024/04/01 04:54:14;;;;;;;8.13;4.77;;;;;;;;;;5091019;28;20491;-73
2024/04/01 04:56:40;;;;;;;14.93;6.40;;;;;;;;;;5090982;28;20438;-73
2024/04/01 04:59:10;;;;;;;8.10;3.90;;;;;;;;;;5090866;28;20444;-73
2024/04/01 05:01:36;;;;;;;13.23;4.27;;;;;;;;;;5090439;28;20545;-73
2024/04/01 05:04:04;;;;;;;8.13;4.87;;;;;;;;;;5091031;28;20451;-73
2024/04/01 05:06:33;;;;;;;10.80;4.60;;;;;;;;;;5090778;28;20483;-73
2024/04/01 05:08:59;;;;;;;13.17;4.63;;;;;;;;;;5090780;28;20535;-70
2024/04/01 05:11:26;;;;;;;12.13;4.27;;;;;;;;;;5090583;28;20478;-70
2024/04/01 05:13:52;;;;;;;14.10;6.23;;;;;;;;;;5090761;28;20449;-70
2024/04/01 05:16:20;;;;;;;12.27;6.97;;;;;;;;;;5090262;28;20475;-70
2024/04/01 05:18:46;;;;;;;5.50;3.97;;;;;;;;;;5090865;28;20530;-70
2024/04/01 05:21:13;;;;;;;11.93;4.70;;;;;;;;;;5090443;28;20450;-70
2024/04/01 05:23:42;;;;;;;10.47;4.53;;;;;;;;;;5090691;28;21037;-70
2024/04/01 05:26:09;;;;;;;9.37;6.03;;;;;;;;;;5090754;28;20490;-70
2024/04/01 05:28:35;;;;;;;10.37;4.90;;;;;;;;;;5090585;28;20450;-70
2024/04/01 05:31:02;;;;;;;12.67;4.87;;;;;;;;;;5090309;28;20446;-70
2024/04/01 05:33:33;;;;;;;7.07;4.60;;;;;;;;;;5090243;28;20454;-70
2024/04/01 05:36:02;;;;;;;5.73;4.10;;;;;;;;;;5090562;28;20467;-70
2024/04/01 05:38:28;;;;;;;12.43;5.30;;;;;;;;;;5090445;28;20514;-70
2024/04/01 05:40:56;;;;;;;12.40;5.07;;;;;;;;;;5090499;28;20489;-70
2024/04/01 05:43:23;;;;;;;7.60;4.57;;;;;;;;;;5090292;28;20447;-70
2024/04/01 05:45:50;;;;;;;14.70;5.40;;;;;;;;;;5092839;28;20483;-70
2024/04/01 05:48:17;;;;;;;10.30;5.60;;;;;;;;;;5094456;28;20446;-70
2024/04/01 05:50:47;;;;;;;6.10;4.00;;;;;;;;;;5094367;28;20482;-70
2024/04/01 05:53:13;;;;;;;14.60;6.17;;;;;;;;;;5093979;28;20949;-70
2024/04/01 05:55:40;;;;;;;10.70;4.40;;;;;;;;;;5094413;28;20528;-70
2024/04/01 05:58:08;;;;;;;16.43;4.90;;;;;;;;;;5094210;28;20442;-70
2024/04/01 06:00:35;;;;;;;13.70;4.37;;;;;;;;;;5094251;28;20456;-70
2024/04/01 06:03:01;;;;;;;11.43;4.33;;;;;;;;;;5093918;28;20541;-70
2024/04/01 06:05:29;;;;;;;10.87;6.20;;;;;;;;;;5093912;28;20482;-70
2024/04/01 06:07:55;;;;;;;8.63;4.20;;;;;;;;;;5093900;28;20449;-70
2024/04/01 06:10:22;;;;;;;8.73;4.10;;;;;;;;;;5094008;28;20442;-70
2024/04/01 06:12:49;;;;;;;10.73;4.27;;;;;;;;;;5093957;28;20537;-70
2024/04/01 06:15:17;;;;;;;7.43;4.13;;;;;;;;;;5093973;28;20466;-70
2024/04/01 06:17:43;;;;;;;16.50;5.50;;;;;;;;;;5093916;28;20447;-70
2024/04/01 06:20:11;;;;;;;15.73;4.37;;;;;;;;;;5093710;28;20503;-70
2024/04/01 06:22:37;;;;;;;11.33;5.73;;;;;;;;;;5093804;28;20524;-70
2024/04/01 06:25:05;;;;;;;13.30;5.63;;;;;;;;;;5093575;28;20470;-70
2024/04/01 06:27:31;;;;;;;13.03;4.47;;;;;;;;;;5094038;28;21017;-70
2024/04/01 06:29:58;;;;;;;8.90;4.47;;;;;;;;;;5090409;28;20462;-70
2024/04/01 06:32:26;;;;;;;9.17;3.80;;;;;;;;;;5093234;28;20608;-70
2024/04/01 06:34:53;;;;;;;10.97;4.27;;;;;;;;;;5093221;28;20980;-70
2024/04/01 06:37:19;;;;;;;4.80;4.30;;;;;;;;;;5093813;28;21024;-70
2024/04/01 06:39:46;;;;;;;5.60;4.70;;;;;;;;;;5093721;28;20442;-70
2024/04/01 06:42:12;;;;;;;7.10;3.80;;;;;;;;;;5093320;28;20450;-70
2024/04/01 06:44:40;;;;;;;4.73;3.67;;;;;;;;;;5093391;28;20969;-70
2024/04/01 06:47:06;;;;;;;11.37;4.47;;;;;;;;;;5093246;28;20494;-70
2024/04/01 06:49:34;;;;;;;5.27;4.47;;;;;;;;;;5093117;28;20849;-70
2024/04/01 06:52:00;;;;;;;9.77;4.70;;;;;;;;;;5093259;28;20877;-70
2024/04/01 06:54:28;;;;;;;7.97;5.03;;;;;;;;;;5093318;28;20515;-70
2024/04/01 06:56:54;;;;;;;11.47;4.50;;;;;;;;;;5093095;28;20530;-70
2024/04/01 06:59:21;;;;;;;9.07;4.77;;;;;;;;;;5093183;28;20953;-70
2024/04/01 07:01:47;;;;;;;17.77;5.03;;;;;;;;;;5092739;28;20453;-70
2024/04/01 07:04:14;;;;;;;17.03;5.80;;;;;;;;;;5092843;28;20474;-70
2024/04/01 07:06:42;;;;;;;10.27;5.33;;;;;;;;;;5093113;28;20531;-70
2024/04/01 07:09:09;;;;;;;7.47;3.90;;;;;;;;;;5092944;28;20447;-70
2024/04/01 07:11:35;;;;;;;8.53;3.97;;;;;;;;;;5092693;28;20448;-70
2024/04/01 07:14:03;;;;;;;7.40;3.83;;;;;;;;;;5092963;28;20443;-70
2024/04/01 07:16:29;;;;;;;10.60;4.00;;;;;;;;;;5092570;28;20459;-70
2024/04/01 07:18:56;;;;;;;4.67;3.10;;;;;;;;;;5093112;28;20448;-70
2024/04/01 07:21:22;;;;;;;3.17;2.53;;;;;;;;;;5092608;28;20889;-70
2024/04/01 07:23:51;;;;;;;10.57;3.10;;;;;;;;;;5092668;28;20458;-70
2024/04/01 07:26:17;;;;;;;3.90;2.60;;;;;;;;;;5092593;28;20481;-70
2024/04/01 07:28:45;;;;;;;7.07;2.83;;;;;;;;;;5092679;28;20451;-70
2024/04/01 07:31:11;;;;;;;5.80;2.40;;;;;;;;;;5092040;28;21004;-70
2024/04/01 07:33:39;;;;;;;2.10;1.60;;;;;;;;;;5091766;28;20472;-69
2024/04/01 07:36:05;;;;;;;2.33;2.07;;;;;;;;;;5092310;28;20495;-69
2024/04/01 07:38:32;;;;;;;2.10;1.73;;;;;;;;;;5092186;28;20442;-69
2024/04/01 07:41:00;;;;;;;2.00;1.60;;;;;;;;;;5092169;28;20525;-69
2024/04/01 07:43:27;;;;;;;2.53;1.67;;;;;;;;;;5092401;28;20485;-68
2024/04/01 07:45:54;;;;;;;3.57;2.40;;;;;;;;;;5092178;28;20936;-68
2024/04/01 07:48:21;;;;;;;4.33;2.90;;;;;;;;;;5091968;28;20451;-68
2024/04/01 07:50:47;;;;;;;2.97;2.43;;;;;;;;;;5092096;28;20546;-67
2024/04/01 07:53:14;;;;;;;2.40;2.23;;;;;;;;;;5092156;28;20452;-67
2024/04/01 07:55:40;;;;;;;2.20;2.00;;;;;;;;;;5092035;28;20464;-67
2024/04/01 07:58:09;;;;;;;3.73;2.27;;;;;;;;;;5091954;28;20443;-66
2024/04/01 08:00:36;;;;;;;2.57;2.30;;;;;;;;;;5081190;28;20562;-67
2024/04/01 08:03:03;;;;;;;5.27;3.10;;;;;;;;;;5086173;28;20936;-66
2024/04/01 08:05:29;;;;;;;8.77;3.10;;;;;;;;;;5084248;28;20494;-66
2024/04/01 08:07:57;;;;;;;5.00;2.73;;;;;;;;;;5087567;28;20450;-66
2024/04/01 08:10:23;;;;;;;9.67;4.23;;;;;;;;;;5082639;28;20942;-65
2024/04/01 08:12:50;;;;;;;9.23;4.77;;;;;;;;;;5089342;28;20468;-66
2024/04/01 08:15:17;;;;;;;4.27;3.70;;;;;;;;;;5091008;28;20458;-66
2024/04/01 08:17:45;;;;;;;5.07;3.67;;;;;;;;;;5089464;28;20491;-66
2024/04/01 08:20:11;;;;;;;2.77;2.57;;;;;;;;;;5085990;28;20496;-65
2024/04/01 08:22:38;;;;;;;4.37;3.07;;;;;;;;;;5088165;28;20450;-65
2024/04/01 08:25:04;;;;;;;4.10;3.60;;;;;;;;;;5090698;28;20834;-66
2024/04/01 08:27:31;;;;;;;6.00;4.13;;;;;;;;;;5090167;28;20482;-66
2024/04/01 08:29:58;;;;;;;11.70;5.03;;;;;;;;;;5089938;28;20443;-66
2024/04/01 08:32:26;;;;;;;5.33;4.10;;;;;;;;;;5087515;28;20830;-65
2024/04/01 08:34:52;;;;;;;10.67;8.17;;;;;;;;;;5086051;28;20471;-66
2024/04/01 08:37:20;;;;;;;10.47;7.90;;;;;;;;;;5082824;28;20448;-65
2024/04/01 08:39:46;;;;;;;14.10;7.87;;;;;;;;;;5080575;28;20448;-64
2024/04/01 08:42:17;;;;;;;3.83;3.40;;;;;;;;;;5094149;28;20438;-65
2024/04/01 08:44:47;;;;;;;8.47;5.83;;;;;;;;;;5090070;28;20497;-64
2024/04/01 08:47:16;;;;;;;5.67;5.27;;;;;;;;;;5088324;28;20573;-64
2024/04/01 08:49:46;;;;;;;7.57;6.80;;;;;;;;;;5082252;28;20443;-64
2024/04/01 08:52:13;;;;;;;6.10;5.70;;;;;;;;;;5083181;28;20447;-64
2024/04/01 08:54:41;;;;;;;6.07;4.00;;;;;;;;;;5088668;28;20466;-64
2024/04/01 08:57:07;;;;;;;4.63;4.13;;;;;;;;;;5095232;28;20450;-64
2024/04/01 08:59:35;;;;;;;3.43;3.13;;;;;;;;;;5087288;28;20833;-65
2024/04/01 09:02:02;;;;;;;2.60;2.40;;;;;;;;;;5088275;28;21012;-64
2024/04/01 09:04:30;;;;;;;3.77;3.50;;;;;;;;;;5088657;28;20952;-64
2024/04/01 09:06:58;;;;;;;5.20;3.00;;;;;;;;;;5090282;28;21012;-64
2024/04/01 09:09:25;;;;;;;2.60;1.80;;;;;;;;;;5082519;28;20449;-64
2024/04/01 09:11:52;;;;;;;4.17;2.50;;;;;;;;;;5093472;28;20531;-65
2024/04/01 09:14:19;;;;;;;6.70;1.80;;;;;;;;;;5097838;28;20500;-64
2024/04/01 09:16:49;;;;;;;5.57;3.27;;;;;;;;;;5088471;28;20541;-64
2024/04/01 09:19:17;;;;;;;2.20;1.73;;;;;;;;;;5094045;28;20453;-64
2024/04/01 09:21:43;;;;;;;5.40;2.10;;;;;;;;;;5088720;28;20490;-64
2024/04/01 09:24:12;;;;;;;3.20;2.90;;;;;;;;;;5090976;28;20882;-64
2024/04/01 09:26:39;;;;;;;6.50;2.10;;;;;;;;;;5097114;28;20487;-63
2024/04/01 09:29:06;;;;;;;2.00;1.73;;;;;;;;;;5102111;28;20454;-64
2024/04/01 09:31:32;;;;;;;3.90;1.20;;;;;;;;;;5108001;28;20435;-64
2024/04/01 09:33:59;;;;;;;1.97;1.77;;;;;;;;;;5107633;28;20441;-64
2024/04/01 09:36:26;;;;;;;1.77;1.43;;;;;;;;;;5106376;28;20465;-67
2024/04/01 09:38:57;;;;;;;4.60;2.00;;;;;;;;;;5099298;28;20814;-66
2024/04/01 09:41:25;;;;;;;1.83;1.70;;;;;;;;;;5093301;28;20529;-67
2024/04/01 09:43:58;;;;;;;1.63;1.53;;;;;;;;;;5106834;28;20444;-66
2024/04/01 09:46:24;;;;;;;1.37;0.90;;;;;;;;;;5103822;28;20490;-66
2024/04/01 09:48:52;;;;;;;3.60;0.87;;;;;;;;;;5094315;28;20442;-66
2024/04/01 09:51:19;;;;;;;0.70;0.70;;;;;;;;;;5106248;28;20524;-66
2024/04/01 09:53:48;;;;;;;0.70;0.70;;;;;;;;;;5109468;28;20449;-66
2024/04/01 09:56:50;;;;;;;0.80;0.80;;;;;;;;;;5106968;28;20461;-66
2024/04/01 09:59:35;;;;;;;2.20;1.07;;;;;;;;;;5094272;28;20471;-66
2024/04/01 10:02:13;;;;;;;0.90;0.90;;;;;;;;;;5093731;28;20446;-66
2024/04/01 10:05:07;;;;;;;1.00;0.70;;;;;;;;;;5100994;28;20456;-65
2024/04/01 10:07:52;;;;;;;0.50;0.50;;;;;;;;;;5104554;28;20489;-65
2024/04/01 10:10:40;;;;;;;0.57;0.57;;;;;;;;;;5093353;28;20445;-65
2024/04/01 10:13:33;;;;;;;0.97;0.90;;;;;;;;;;5103147;28;20440;-66
2024/04/01 10:16:12;;;;;;;2.53;0.90;;;;;;;;;;5071652;28;20457;-65
2024/04/01 10:18:52;;;;;;;0.53;0.53;;;;;;;;;;5097857;28;20513;-65
2024/04/01 10:21:40;;;;;;;0.67;0.67;;;;;;;;;;5085411;28;20450;-66
2024/04/01 10:24:23;;;;;;;0.50;0.50;;;;;;;;;;5071767;28;20448;-66
2024/04/01 10:27:01;;;;;;;0.50;0.50;;;;;;;;;;5082417;28;20855;-63
2024/04/01 10:29:45;;;;;;;0.70;0.70;;;;;;;;;;5099668;28;20529;-64
2024/04/01 10:32:24;;;;;;;0.77;0.77;;;;;;;;;;5080137;28;20446;-63
2024/04/01 10:34:59;;;;;;;0.60;0.60;;;;;;;;;;5090034;28;20490;-64
2024/04/01 10:37:39;;;;;;;0.93;0.87;;;;;;;;;;5097209;28;20435;-64
2024/04/01 10:40:12;;;;;;;0.80;0.80;;;;;;;;;;5097458;28;20447;-63
2024/04/01 10:43:08;;;;;;;1.03;0.90;;;;;;;;;;5102573;28;20436;-63
2024/04/01 10:45:56;;;;;;;1.00;1.00;;;;;;;;;;5104071;28;20486;-63
2024/04/01 10:48:27;;;;;;;2.47;2.27;;;;;;;;;;5097094;28;20455;-64
2024/04/01 10:51:11;;;;;;;1.70;1.60;;;;;;;;;;5100676;28;20447;-63
2024/04/01 10:53:50;;;;;;;1.10;0.97;;;;;;;;;;5105822;28;20439;-64
2024/04/01 10:56:29;;;;;;;6.33;3.07;;;;;;;;;;5095946;28;20461;-65
2024/04/01 10:59:11;;;;;;;0.93;0.83;;;;;;;;;;5101102;28;20435;-64
2024/04/01 11:01:43;;;;;;;0.90;0.90;;;;;;;;;;5095378;28;20474;-64
2024/04/01 11:04:34;;;;;;;16.33;11.37;;;;;;;;;;5095661;28;20443;-64
2024/04/01 11:07:03;;;;;;;2.80;2.60;;;;;;;;;;5103315;28;20480;-64
2024/04/01 11:09:39;;;;;;;0.73;0.73;;;;;;;;;;5102293;28;20447;-64
2024/04/01 11:12:21;;;;;;;1.10;1.10;;;;;;;;;;5089859;28;20443;-65
2024/04/01 11:14:50;;;;;;;0.57;0.57;;;;;;;;;;5079136;28;20896;-64
2024/04/01 11:17:18;;;;;;;1.57;1.30;;;;;;;;;;5076465;28;20471;-64
2024/04/01 11:20:09;;;;;;;1.07;1.07;;;;;;;;;;5075752;28;20459;-64
2024/04/01 11:22:44;;;;;;;0.73;0.73;;;;;;;;;;5093186;28;20454;-64
2024/04/01 11:25:15;;;;;;;1.70;1.60;;;;;;;;;;5094847;28;20462;-64
2024/04/01 11:27:56;;;;;;;0.63;0.50;;;;;;;;;;5090818;28;20489;-65
2024/04/01 11:30:25;;;;;;;0.70;0.70;;;;;;;;;;5100824;28;21173;-65
2024/04/01 11:32:55;;;;;;;1.97;1.87;;;;;;;;;;5096077;28;20450;-64
2024/04/01 11:35:30;;;;;;;0.60;0.60;;;;;;;;;;5091388;28;20848;-64
2024/04/01 11:38:02;;;;;;;0.50;0.50;;;;;;;;;;5093641;28;21028;-65
2024/04/01 11:40:32;;;;;;;1.00;1.00;;;;;;;;;;5090754;28;20789;-64
2024/04/01 11:43:00;;;;;;;0.53;0.53;;;;;;;;;;5096242;28;20463;-64
2024/04/01 11:45:28;;;;;;;0.63;0.40;;;;;;;;;;5091058;28;20503;-65
2024/04/01 11:47:55;;;;;;;0.80;0.80;;;;;;;;;;5089926;28;20485;-64
2024/04/01 11:50:22;;;;;;;0.83;0.70;;;;;;;;;;5086272;28;20964;-65
2024/04/01 11:52:59;;;;;;;0.80;0.80;;;;;;;;;;5086517;28;20471;-65
2024/04/01 11:55:26;;;;;;;0.47;0.37;;;;;;;;;;5083757;28;20462;-65
2024/04/01 11:57:53;;;;;;;0.93;0.57;;;;;;;;;;5089997;28;20812;-64
2024/04/01 12:00:19;;;;;;;0.60;0.60;;;;;;;;;;5095406;28;20521;-65
2024/04/01 12:02:54;;;;;;;0.50;0.50;;;;;;;;;;5096026;28;20959;-65
2024/04/01 12:05:20;;;;;;;0.40;0.40;;;;;;;;;;5091702;28;20462;-65
2024/04/01 12:07:48;;;;;;;0.30;0.30;;;;;;;;;;5090146;28;21040;-64
2024/04/01 12:10:17;;;;;;;0.50;0.50;;;;;;;;;;5083656;28;20813;-64
2024/04/01 12:12:46;;;;;;;0.70;0.70;;;;;;;;;;5088404;28;21022;-65
2024/04/01 12:15:17;;;;;;;0.93;0.93;;;;;;;;;;5093023;28;20468;-65
2024/04/01 12:17:44;;;;;;;0.80;0.80;;;;;;;;;;5093345;28;20448;-65
2024/04/01 12:20:11;;;;;;;1.13;0.70;;;;;;;;;;5085487;28;20886;-65
2024/04/01 12:22:38;;;;;;;1.20;1.10;;;;;;;;;;5086840;28;20444;-65
2024/04/01 12:25:05;;;;;;;0.60;0.60;;;;;;;;;;5076459;28;20497;-65
2024/04/01 12:27:33;;;;;;;0.60;0.60;;;;;;;;;;5076168;28;20484;-65
2024/04/01 12:30:00;;;;;;;0.50;0.50;;;;;;;;;;5074789;28;20534;-65
2024/04/01 12:32:30;;;;;;;0.53;0.53;;;;;;;;;;5071528;28;20454;-65
2024/04/01 12:34:56;;;;;;;0.40;0.40;;;;;;;;;;5087310;28;20486;-65
2024/04/01 12:37:24;;;;;;;0.47;0.47;;;;;;;;;;5086822;28;20438;-65
2024/04/01 12:39:52;;;;;;;0.60;0.60;;;;;;;;;;5074130;28;20452;-66
2024/04/01 12:42:21;;;;;;;0.50;0.50;;;;;;;;;;5069580;28;20447;-65
2024/04/01 12:44:49;;;;;;;0.30;0.30;;;;;;;;;;5069828;28;20463;-65
2024/04/01 12:47:18;;;;;;;0.30;0.30;;;;;;;;;;5069873;28;20487;-66
2024/04/01 12:49:45;;;;;;;0.43;0.43;;;;;;;;;;5069623;28;20488;-66
2024/04/01 12:52:12;;;;;;;0.50;0.50;;;;;;;;;;5075533;28;20454;-66
2024/04/01 12:54:52;;;;;;;0.60;0.60;;;;;;;;;;5094023;28;20471;-65
2024/04/01 12:57:26;;;;;;;0.87;0.40;;;;;;;;;;5089427;28;20445;-66
2024/04/01 13:00:00;;;;;;;2.00;0.70;;;;;;;;;;5093784;28;20530;-66
2024/04/01 13:02:39;;;;;;;0.60;0.40;;;;;;;;;;5096039;28;20935;-66
2024/04/01 13:05:12;;;;;;;0.57;0.30;;;;;;;;;;5095491;28;20466;-66
2024/04/01 13:07:46;;;;;;;0.40;0.40;;;;;;;;;;5092874;28;20859;-66
2024/04/01 13:10:20;;;;;;;0.40;0.40;;;;;;;;;;5081289;28;20447;-66
2024/04/01 13:13:03;;;;;;;0.50;0.50;;;;;;;;;;5092100;28;20827;-65
2024/04/01 13:15:36;;;;;;;0.30;0.30;;;;;;;;;;5080932;28;20473;-66
2024/04/01 13:18:11;;;;;;;0.53;0.53;;;;;;;;;;5093020;28;20545;-66
2024/04/01 13:20:44;;;;;;;0.77;0.40;;;;;;;;;;5092506;28;20459;-66
2024/04/01 13:23:19;;;;;;;0.77;0.60;;;;;;;;;;5082725;28;20475;-66
2024/04/01 13:25:48;;;;;;;0.77;0.40;;;;;;;;;;5089049;28;20476;-66
2024/04/01 13:28:17;;;;;;;0.40;0.40;;;;;;;;;;5093932;28;20493;-66
2024/04/01 13:30:53;;;;;;;0.30;0.30;;;;;;;;;;5090210;28;20450;-66
2024/04/01 13:33:23;;;;;;;0.50;0.50;;;;;;;;;;5082126;28;20502;-66
2024/04/01 13:35:58;;;;;;;0.30;0.30;;;;;;;;;;5092501;28;20511;-66
2024/04/01 13:38:29;;;;;;;0.50;0.50;;;;;;;;;;5085214;28;20443;-66
2024/04/01 13:41:01;;;;;;;0.50;0.30;;;;;;;;;;5096970;28;20447;-66
2024/04/01 13:43:35;;;;;;;0.67;0.67;;;;;;;;;;5095117;28;20447;-66
2024/04/01 13:46:07;;;;;;;0.50;0.50;;;;;;;;;;5095633;28;20476;-66
2024/04/01 13:48:42;;;;;;;0.97;0.50;;;;;;;;;;5087377;28;21010;-66
2024/04/01 13:51:11;;;;;;;0.60;0.30;;;;;;;;;;5092354;28;20474;-66
2024/04/01 13:53:42;;;;;;;2.30;0.40;;;;;;;;;;5094967;28;20831;-67
2024/04/01 13:56:23;;;;;;;0.20;0.20;;;;;;;;;;5099447;28;20470;-66
2024/04/01 13:58:51;;;;;;;0.50;0.50;;;;;;;;;;5087049;28;20443;-67
2024/04/01 14:01:22;;;;;;;0.70;0.60;;;;;;;;;;5097054;28;20498;-67
2024/04/01 14:03:57;;;;;;;0.37;0.37;;;;;;;;;;5098271;28;20478;-67
2024/04/01 14:06:29;;;;;;;0.33;0.33;;;;;;;;;;5083971;28;20477;-68
2024/04/01 14:09:02;;;;;;;0.40;0.40;;;;;;;;;;5086011;28;20449;-66
2024/04/01 14:11:33;;;;;;;0.83;0.33;;;;;;;;;;5092782;28;21009;-68
2024/04/01 14:14:03;;;;;;;0.33;0.33;;;;;;;;;;5091910;28;20817;-66
2024/04/01 14:16:35;;;;;;;0.30;0.30;;;;;;;;;;5093025;28;20551;-68
2024/04/01 14:19:10;;;;;;;0.30;0.30;;;;;;;;;;5090762;28;20445;-68
2024/04/01 14:21:37;;;;;;;0.30;0.30;;;;;;;;;;5092168;28;20534;-67
2024/04/01 14:24:04;;;;;;;0.47;0.30;;;;;;;;;;5092105;28;20842;-68
2024/04/01 14:26:30;;;;;;;1.57;0.70;;;;;;;;;;5087730;28;20477;-67
2024/04/01 14:28:58;;;;;;;1.23;0.50;;;;;;;;;;5091005;28;20454;-68
2024/04/01 14:31:25;;;;;;;2.00;0.80;;;;;;;;;;5091998;28;20527;-68
2024/04/01 14:33:53;;;;;;;0.50;0.43;;;;;;;;;;5092153;28;20479;-67
2024/04/01 14:36:21;;;;;;;1.03;0.67;;;;;;;;;;5089416;28;20501;-67
2024/04/01 14:38:48;;;;;;;0.30;0.27;;;;;;;;;;5092258;28;20450;-68
2024/04/01 14:41:15;;;;;;;0.60;0.60;;;;;;;;;;5088085;28;20475;-68
2024/04/01 14:43:42;;;;;;;0.57;0.43;;;;;;;;;;5091817;28;20449;-68
2024/04/01 14:46:08;;;;;;;3.23;0.60;;;;;;;;;;5091820;28;20451;-69
2024/04/01 14:48:35;;;;;;;3.33;0.30;;;;;;;;;;5092112;28;20481;-68
2024/04/01 14:51:03;;;;;;;0.33;0.33;;;;;;;;;;5086372;28;20464;-69
2024/04/01 14:53:32;;;;;;;0.93;0.33;;;;;;;;;;5085329;28;20511;-69